createdAt,value
2023-06-10T00:00:24.839Z,44.54
2023-06-10T00:02:28.082Z,44.60
2023-06-10T00:04:31.010Z,44.77
2023-06-10T00:06:36.786Z,44.60
2023-06-10T00:08:40.872Z,44.35
2023-06-10T00:10:43.757Z,44.31
2023-06-10T00:12:47.932Z,44.48
2023-06-10T00:14:52.710Z,44.45
2023-06-10T00:16:56.276Z,44.39
2023-06-10T00:19:02.329Z,44.66
2023-06-10T00:21:05.876Z,44.65
2023-06-10T00:23:10.581Z,44.54
2023-06-10T00:25:13.567Z,44.47
2023-06-10T00:27:16.499Z,44.62
2023-06-10T00:29:21.456Z,44.32
2023-06-10T00:31:24.454Z,44.18
2023-06-10T00:33:27.342Z,44.37
2023-06-10T00:35:30.181Z,43.98
2023-06-10T00:37:33.164Z,44.16
2023-06-10T00:39:36.151Z,44.37
2023-06-10T00:41:40.913Z,44.15
2023-06-10T00:43:43.842Z,44.00
2023-06-10T00:45:48.064Z,44.41
2023-06-10T00:47:50.970Z,44.14
2023-06-10T00:49:56.626Z,43.81
2023-06-10T00:52:02.295Z,43.63
2023-06-10T00:54:06.347Z,43.56
2023-06-10T00:56:10.038Z,43.47
2023-06-10T00:58:13.516Z,43.74
2023-06-10T01:00:17.209Z,43.88
2023-06-10T01:02:21.568Z,43.98
2023-06-10T01:04:24.873Z,43.73
2023-06-10T01:06:38.469Z,43.75
2023-06-10T01:08:49.644Z,44.11
2023-06-10T01:10:55.617Z,44.37
2023-06-10T01:13:03.547Z,44.55
2023-06-10T01:15:08.985Z,44.63
2023-06-10T01:17:12.695Z,44.75
2023-06-10T01:19:18.893Z,45.18
2023-06-10T01:21:25.839Z,45.54
2023-06-10T01:23:29.334Z,45.21
2023-06-10T01:25:33.943Z,45.75
2023-06-10T01:27:41.063Z,45.35
2023-06-10T01:29:49.370Z,45.00
2023-06-10T01:32:04.406Z,44.96
2023-06-10T01:34:11.888Z,45.16
2023-06-10T01:36:17.371Z,45.05
2023-06-10T01:38:22.520Z,45.05
2023-06-10T01:40:27.333Z,44.93
2023-06-10T01:42:30.661Z,44.87
2023-06-10T01:44:34.243Z,45.07
2023-06-10T01:46:37.563Z,44.55
2023-06-10T01:48:40.738Z,44.26
2023-06-10T01:50:44.859Z,44.01
2023-06-10T01:52:47.789Z,44.18
2023-06-10T01:54:51.920Z,44.42
2023-06-10T01:56:54.813Z,43.89
2023-06-10T01:59:00.230Z,43.61
2023-06-10T02:01:03.217Z,43.44
2023-06-10T02:03:06.386Z,43.40
2023-06-10T02:05:09.882Z,43.20
2023-06-10T02:07:13.320Z,42.71
2023-06-10T02:09:16.294Z,42.73
2023-06-10T02:11:20.575Z,42.78
2023-06-10T02:13:23.408Z,42.76
2023-06-10T02:15:30.645Z,42.97
2023-06-10T02:17:33.637Z,42.96
2023-06-10T02:19:37.700Z,42.97
2023-06-10T02:21:40.678Z,42.91
2023-06-10T02:23:43.649Z,42.90
2023-06-10T02:25:46.532Z,42.92
2023-06-10T02:27:50.941Z,42.73
2023-06-10T02:29:54.324Z,42.72
2023-06-10T02:31:57.813Z,42.73
2023-06-10T02:34:01.340Z,42.95
2023-06-10T02:36:04.739Z,42.80
2023-06-10T02:38:07.634Z,42.64
2023-06-10T02:40:13.884Z,42.91
2023-06-10T02:42:16.782Z,43.18
2023-06-10T02:44:21.695Z,43.24
2023-06-10T02:46:25.086Z,43.97
2023-06-10T02:48:30.240Z,43.65
2023-06-10T02:50:33.967Z,43.76
2023-06-10T02:52:59.857Z,44.42
2023-06-10T02:55:02.888Z,44.54
2023-06-10T02:57:06.518Z,44.15
2023-06-10T02:59:09.489Z,43.97
2023-06-10T03:01:14.187Z,43.97
2023-06-10T03:03:28.702Z,44.17
2023-06-10T03:05:39.963Z,44.49
2023-06-10T03:07:43.569Z,44.86
2023-06-10T03:09:46.479Z,44.66
2023-06-10T03:11:50.994Z,45.02
2023-06-10T03:13:54.744Z,45.42
2023-06-10T03:15:58.796Z,45.99
2023-06-10T03:18:04.224Z,47.46
2023-06-10T03:20:11.172Z,47.59
2023-06-10T03:22:17.146Z,47.65
2023-06-10T03:24:27.206Z,46.76
2023-06-10T03:26:30.111Z,47.22
2023-06-10T03:28:33.164Z,47.26
2023-06-10T03:30:36.061Z,47.26
2023-06-10T03:32:38.969Z,47.14
2023-06-10T03:34:46.666Z,47.10
2023-06-10T03:36:50.109Z,47.04
2023-06-10T03:38:54.935Z,47.37
2023-06-10T03:40:58.336Z,48.06
2023-06-10T03:43:01.694Z,48.44
2023-06-10T03:45:07.013Z,47.97
2023-06-10T03:47:11.832Z,47.88
2023-06-10T03:51:18.539Z,48.80
2023-06-10T03:53:28.691Z,48.42
2023-06-10T03:55:32.241Z,48.53
2023-06-10T03:57:36.628Z,48.36
2023-06-10T03:59:39.566Z,48.86
2023-06-10T04:01:42.828Z,49.12
2023-06-10T04:03:45.787Z,48.92
2023-06-10T04:05:48.701Z,49.57
2023-06-10T04:07:52.936Z,49.54
2023-06-10T04:09:55.869Z,49.56
2023-06-10T04:11:58.667Z,49.28
2023-06-10T04:14:02.105Z,49.17
2023-06-10T04:16:05.411Z,49.22
2023-06-10T04:18:09.496Z,48.94
2023-06-10T04:20:12.930Z,48.92
2023-06-10T04:22:19.662Z,49.20
2023-06-10T04:24:23.925Z,49.10
2023-06-10T04:26:26.757Z,49.57
2023-06-10T04:28:30.061Z,49.52
2023-06-10T04:30:33.339Z,49.26
2023-06-10T04:32:37.457Z,49.14
2023-06-10T04:34:42.210Z,49.39
2023-06-10T04:36:45.094Z,49.55
2023-06-10T04:38:48.341Z,49.47
2023-06-10T04:40:52.715Z,49.82
2023-06-10T04:42:57.314Z,49.32
2023-06-10T04:45:00.555Z,49.42
2023-06-10T04:47:04.124Z,49.56
2023-06-10T04:49:07.129Z,49.46
2023-06-10T04:51:09.992Z,49.32
2023-06-10T04:53:13.015Z,49.18
2023-06-10T04:55:19.766Z,49.38
2023-06-10T04:57:23.966Z,49.06
2023-06-10T04:59:26.975Z,49.51
2023-06-10T05:01:29.852Z,49.71
2023-06-10T05:03:32.849Z,49.37
2023-06-10T05:05:35.914Z,49.25
2023-06-10T05:07:38.800Z,49.27
2023-06-10T05:09:41.620Z,49.38
2023-06-10T05:11:44.521Z,49.59
2023-06-10T05:13:48.813Z,49.27
2023-06-10T05:15:51.754Z,49.08
2023-06-10T05:17:54.711Z,49.47
2023-06-10T05:19:57.941Z,49.49
2023-06-10T05:22:00.808Z,49.35
2023-06-10T05:24:03.678Z,49.27
2023-06-10T05:26:06.534Z,49.43
2023-06-10T05:28:12.900Z,49.42
2023-06-10T05:30:19.835Z,49.07
2023-06-10T05:32:23.190Z,49.35
2023-06-10T05:34:26.121Z,49.36
2023-06-10T05:36:28.973Z,49.00
2023-06-10T05:38:31.754Z,49.03
2023-06-10T05:40:34.572Z,48.48
2023-06-10T05:42:37.455Z,48.29
2023-06-10T05:44:40.421Z,48.30
2023-06-10T05:46:44.654Z,48.39
2023-06-10T05:48:47.511Z,48.14
2023-06-10T05:50:50.281Z,47.84
2023-06-10T05:52:54.743Z,47.84
2023-06-10T05:54:57.611Z,47.36
2023-06-10T05:57:00.562Z,47.62
2023-06-10T05:59:03.410Z,47.49
2023-06-10T06:01:06.298Z,47.09
2023-06-10T06:03:11.386Z,47.27
2023-06-10T06:05:14.579Z,47.07
2023-06-10T06:07:18.005Z,47.50
2023-06-10T06:09:20.928Z,47.29
2023-06-10T06:11:24.206Z,46.99
2023-06-10T06:13:27.124Z,46.29
2023-06-10T06:15:30.027Z,46.51
2023-06-10T06:17:32.899Z,46.17
2023-06-10T06:19:37.087Z,45.79
2023-06-10T06:21:39.964Z,45.85
2023-06-10T06:23:42.873Z,45.10
2023-06-10T06:25:45.742Z,45.24
2023-06-10T06:27:48.618Z,45.77
2023-06-10T06:29:51.771Z,45.02
2023-06-10T06:31:55.208Z,44.27
2023-06-10T06:34:01.022Z,44.39
2023-06-10T06:36:05.658Z,43.79
2023-06-10T06:38:08.442Z,44.48
2023-06-10T06:40:15.076Z,44.21
2023-06-10T06:42:17.951Z,43.69
2023-06-10T06:44:53.143Z,42.96
2023-06-10T06:46:55.963Z,43.39
2023-06-10T06:48:58.967Z,43.29
2023-06-10T06:51:01.869Z,43.68
2023-06-10T06:53:06.815Z,42.07
2023-06-10T06:55:10.568Z,42.00
2023-06-10T06:57:13.636Z,41.58
2023-06-10T06:59:17.516Z,41.63
2023-06-10T07:01:20.743Z,40.98
2023-06-10T07:03:23.696Z,41.07
2023-06-10T07:05:28.272Z,41.86
2023-06-10T07:07:31.292Z,40.98
2023-06-10T07:09:35.547Z,41.00
2023-06-10T07:11:38.506Z,41.39
2023-06-10T07:13:41.305Z,40.41
2023-06-10T07:15:44.111Z,40.42
2023-06-10T07:17:47.121Z,40.43
2023-06-10T07:19:50.025Z,39.69
2023-06-10T07:21:52.935Z,40.04
2023-06-10T07:23:55.802Z,39.80
2023-06-10T07:26:00.040Z,39.85
2023-06-10T07:28:02.868Z,40.02
2023-06-10T07:30:07.847Z,38.79
2023-06-10T07:32:10.794Z,38.51
2023-06-10T07:34:13.601Z,38.83
2023-06-10T07:36:16.539Z,38.21
2023-06-10T07:38:19.620Z,37.52
2023-06-10T07:40:22.460Z,37.63
2023-06-10T07:42:26.636Z,37.63
2023-06-10T07:44:29.332Z,38.47
2023-06-10T07:46:32.283Z,38.41
2023-06-10T07:48:35.159Z,37.60
2023-06-10T07:50:38.096Z,38.01
2023-06-10T07:52:40.894Z,38.28
2023-06-10T07:54:43.773Z,37.54
2023-06-10T07:56:46.601Z,37.52
2023-06-10T07:58:50.813Z,38.51
2023-06-10T08:00:53.567Z,36.96
2023-06-10T08:02:56.805Z,37.19
2023-06-10T08:04:59.824Z,37.52
2023-06-10T08:07:02.809Z,37.31
2023-06-10T08:09:15.100Z,36.40
2023-06-10T08:11:17.995Z,36.77
2023-06-10T08:13:20.941Z,38.49
2023-06-10T08:15:25.156Z,38.99
2023-06-10T08:17:27.879Z,36.81
2023-06-10T08:19:31.809Z,37.27
2023-06-10T08:21:34.644Z,37.69
2023-06-10T08:23:37.548Z,36.96
2023-06-10T08:25:40.497Z,35.43
2023-06-10T08:27:43.345Z,36.54
2023-06-10T08:29:46.165Z,36.27
2023-06-10T08:31:50.406Z,35.19
2023-06-10T08:33:53.176Z,36.02
2023-06-10T08:35:56.123Z,36.13
2023-06-10T08:37:58.911Z,35.61
2023-06-10T08:40:02.189Z,36.25
2023-06-10T08:42:14.938Z,35.89
2023-06-10T08:44:24.306Z,35.66
2023-06-10T08:46:27.509Z,36.01
2023-06-10T08:48:33.113Z,36.82
2023-06-10T08:50:38.458Z,36.72
2023-06-10T08:52:45.578Z,36.20
2023-06-10T08:54:56.554Z,35.72
2023-06-10T08:57:01.546Z,35.43
2023-06-10T08:59:05.323Z,34.17
2023-06-10T09:01:08.417Z,34.64
2023-06-10T09:03:11.674Z,34.10
2023-06-10T09:05:16.183Z,34.24
2023-06-10T09:07:19.387Z,34.61
2023-06-10T09:09:22.281Z,34.23
2023-06-10T09:11:25.085Z,34.63
2023-06-10T09:13:27.977Z,35.51
2023-06-10T09:15:30.932Z,35.23
2023-06-10T09:17:34.010Z,34.95
2023-06-10T09:19:37.682Z,34.06
2023-06-10T09:21:41.878Z,34.78
2023-06-10T09:23:44.865Z,34.51
2023-06-10T09:25:47.704Z,35.06
2023-06-10T09:27:54.716Z,34.53
2023-06-10T09:29:58.835Z,34.55
2023-06-10T09:32:03.257Z,35.02
2023-06-10T09:34:08.478Z,35.75
2023-06-10T09:36:11.349Z,35.70
2023-06-10T09:38:17.563Z,35.18
2023-06-10T09:40:20.508Z,35.04
2023-06-10T09:42:23.528Z,35.96
2023-06-10T09:44:26.616Z,36.83
2023-06-10T09:46:33.620Z,36.13
2023-06-10T09:48:43.879Z,36.94
2023-06-10T09:50:47.829Z,37.23
2023-06-10T09:52:50.667Z,37.60
2023-06-10T09:54:55.350Z,38.28
2023-06-10T09:56:59.831Z,38.38
2023-06-10T09:59:02.950Z,37.28
2023-06-10T10:01:08.876Z,37.45
2023-06-10T10:03:12.416Z,37.93
2023-06-10T10:05:16.895Z,38.02
2023-06-10T10:07:20.059Z,38.18
2023-06-10T10:09:22.911Z,37.57
2023-06-10T10:11:28.371Z,37.79
2023-06-10T10:13:35.549Z,37.98
2023-06-10T10:15:42.487Z,37.75
2023-06-10T10:17:51.525Z,36.98
2023-06-10T10:20:00.331Z,36.57
2023-06-10T10:22:09.814Z,36.67
2023-06-10T10:24:18.331Z,37.08
2023-06-10T10:26:23.463Z,37.48
2023-06-10T10:28:36.628Z,37.27
2023-06-10T10:30:42.784Z,36.41
2023-06-10T10:32:54.269Z,36.35
2023-06-10T10:35:05.869Z,36.19
2023-06-10T10:37:08.981Z,36.10
2023-06-10T10:39:13.185Z,36.98
2023-06-10T10:41:17.043Z,36.79
2023-06-10T10:43:20.412Z,36.32
2023-06-10T10:45:24.947Z,35.39
2023-06-10T10:47:30.344Z,34.49
2023-06-10T10:49:35.737Z,32.99
2023-06-10T10:51:38.581Z,33.34
2023-06-10T10:53:41.895Z,30.56
2023-06-10T10:55:59.679Z,32.02
2023-06-10T10:58:06.046Z,31.60
2023-06-10T11:00:12.184Z,32.30
2023-06-10T11:02:19.927Z,31.28
2023-06-10T11:04:22.989Z,31.06
2023-06-10T11:06:26.255Z,31.36
2023-06-10T11:08:48.329Z,30.17
2023-06-10T11:10:53.978Z,30.75
2023-06-10T11:12:56.909Z,31.09
2023-06-10T11:15:01.336Z,29.56
2023-06-10T11:17:21.705Z,29.81
2023-06-10T11:19:35.547Z,30.75
2023-06-10T11:22:00.968Z,30.86
2023-06-10T11:24:14.469Z,29.85
2023-06-10T11:26:23.259Z,29.78
2023-06-10T11:28:29.931Z,29.86
2023-06-10T11:30:37.000Z,29.30
2023-06-10T11:32:45.153Z,29.09
2023-06-10T11:34:54.631Z,28.85
2023-06-10T11:36:58.064Z,29.30
2023-06-10T11:39:02.767Z,29.93
2023-06-10T11:41:05.637Z,28.83
2023-06-10T11:43:08.697Z,28.64
2023-06-10T11:45:12.366Z,29.46
2023-06-10T11:47:15.283Z,29.33
2023-06-10T11:49:19.923Z,28.41
2023-06-10T11:51:23.390Z,29.79
2023-06-10T11:53:26.230Z,29.07
2023-06-10T11:55:43.097Z,29.85
2023-06-10T11:57:46.049Z,29.16
2023-06-10T11:59:48.959Z,29.40
2023-06-10T12:01:51.855Z,29.84
2023-06-10T12:04:01.981Z,30.00
2023-06-10T12:06:08.145Z,30.00
2023-06-10T12:08:12.152Z,28.83
2023-06-10T12:10:26.929Z,28.80
2023-06-10T12:12:30.694Z,28.63
2023-06-10T12:14:52.620Z,29.57
2023-06-10T12:16:55.540Z,30.27
2023-06-10T12:19:04.466Z,30.29
2023-06-10T12:21:19.570Z,29.73
2023-06-10T12:23:22.595Z,29.11
2023-06-10T12:25:29.346Z,29.32
2023-06-10T12:27:33.189Z,29.67
2023-06-10T12:29:36.066Z,29.67
2023-06-10T12:31:54.422Z,28.54
2023-06-10T12:34:09.894Z,28.11
2023-06-10T12:36:19.478Z,28.30
2023-06-10T12:38:28.099Z,28.36
2023-06-10T12:40:32.462Z,29.59
2023-06-10T12:42:36.227Z,29.69
2023-06-10T12:44:42.103Z,29.19
2023-06-10T12:46:45.199Z,29.61
2023-06-10T12:48:53.189Z,30.48
2023-06-10T12:50:57.408Z,30.06
2023-06-10T12:53:01.617Z,30.47
2023-06-10T12:55:05.392Z,31.06
2023-06-10T12:57:08.523Z,31.38
2023-06-10T12:59:11.349Z,31.67
2023-06-10T13:01:15.652Z,30.52
2023-06-10T13:03:18.679Z,31.47
2023-06-10T13:05:22.349Z,30.42
2023-06-10T13:07:26.260Z,31.07
2023-06-10T13:09:30.444Z,29.45
2023-06-10T13:11:33.305Z,29.82
2023-06-10T13:13:39.277Z,29.65
2023-06-10T13:15:44.428Z,30.00
2023-06-10T13:17:53.442Z,30.06
2023-06-10T13:19:56.657Z,30.45
2023-06-10T13:21:59.530Z,29.60
2023-06-10T13:24:02.454Z,29.19
2023-06-10T13:26:06.646Z,29.18
2023-06-10T13:28:09.527Z,29.22
2023-06-10T13:30:13.629Z,30.68
2023-06-10T13:32:16.389Z,30.40
2023-06-10T13:34:19.248Z,29.50
2023-06-10T13:36:22.138Z,29.73
2023-06-10T13:38:25.194Z,30.22
2023-06-10T13:40:28.099Z,30.52
2023-06-10T13:42:32.496Z,28.93
2023-06-10T13:44:37.244Z,29.17
2023-06-10T13:46:40.094Z,29.96
2023-06-10T13:48:43.100Z,28.72
2023-06-10T13:50:46.639Z,29.87
2023-06-10T13:52:49.576Z,29.45
2023-06-10T13:54:52.403Z,29.49
2023-06-10T13:56:55.638Z,28.48
2023-06-10T13:59:01.277Z,28.01
2023-06-10T14:01:06.394Z,28.63
2023-06-10T14:03:09.320Z,29.25
2023-06-10T14:05:12.565Z,29.54
2023-06-10T14:07:16.518Z,28.32
2023-06-10T14:09:20.105Z,28.56
2023-06-10T14:11:22.888Z,28.22
2023-06-10T14:13:25.679Z,29.60
2023-06-10T14:15:29.825Z,28.53
2023-06-10T14:17:32.623Z,27.23
2023-06-10T14:19:35.544Z,27.64
2023-06-10T14:21:38.422Z,26.12
2023-06-10T14:23:42.561Z,26.51
2023-06-10T14:25:46.886Z,26.86
2023-06-10T14:27:51.737Z,27.70
2023-06-10T14:29:54.560Z,28.41
2023-06-10T14:31:58.776Z,27.37
2023-06-10T14:34:01.627Z,27.89
2023-06-10T14:36:04.584Z,28.58
2023-06-10T14:38:08.527Z,28.76
2023-06-10T14:40:11.579Z,29.56
2023-06-10T14:42:14.475Z,29.46
2023-06-10T14:44:17.284Z,30.23
2023-06-10T14:46:21.868Z,31.05
2023-06-10T14:48:26.155Z,31.41
2023-06-10T14:50:31.333Z,30.10
2023-06-10T14:52:34.156Z,29.41
2023-06-10T14:54:37.018Z,30.39
2023-06-10T14:56:39.811Z,30.03
2023-06-10T14:58:42.659Z,28.68
2023-06-10T15:00:45.553Z,30.67
2023-06-10T15:02:48.938Z,28.34
2023-06-10T15:04:53.170Z,27.36
2023-06-10T15:06:56.314Z,26.31
2023-06-10T15:08:59.114Z,28.23
2023-06-10T15:11:02.312Z,26.81
2023-06-10T15:13:05.231Z,26.87
2023-06-10T15:15:08.866Z,26.50
2023-06-10T15:17:11.950Z,27.16
2023-06-10T15:19:15.149Z,26.04
2023-06-10T15:21:19.306Z,26.74
2023-06-10T15:23:22.179Z,26.85
2023-06-10T15:25:31.431Z,27.02
2023-06-10T15:27:34.468Z,26.57
2023-06-10T15:29:37.297Z,25.52
2023-06-10T15:31:40.409Z,24.98
2023-06-10T15:33:45.823Z,25.48
2023-06-10T15:35:50.634Z,25.41
2023-06-10T15:37:54.973Z,26.36
2023-06-10T15:39:57.896Z,25.87
2023-06-10T15:42:00.765Z,26.79
2023-06-10T15:44:03.708Z,25.69
2023-06-10T15:46:06.726Z,24.73
2023-06-10T15:48:09.597Z,25.42
2023-06-10T15:50:12.469Z,26.82
2023-06-10T15:52:15.456Z,26.87
2023-06-10T15:54:19.781Z,26.29
2023-06-10T15:56:23.716Z,25.84
2023-06-10T15:58:26.654Z,24.82
2023-06-10T16:00:29.438Z,25.73
2023-06-10T16:02:35.037Z,25.64
2023-06-10T16:04:39.605Z,26.45
2023-06-10T16:06:42.469Z,27.29
2023-06-10T16:08:46.522Z,27.72
2023-06-10T16:10:50.878Z,26.94
2023-06-10T16:12:53.724Z,26.99
2023-06-10T16:14:56.557Z,27.42
2023-06-10T16:16:59.641Z,26.37
2023-06-10T16:19:02.552Z,26.53
2023-06-10T16:21:06.532Z,26.87
2023-06-10T16:23:09.311Z,26.08
2023-06-10T16:25:12.393Z,26.78
2023-06-10T16:27:16.837Z,27.23
2023-06-10T16:29:19.741Z,26.02
2023-06-10T16:31:23.302Z,27.09
2023-06-10T16:33:26.119Z,27.20
2023-06-10T16:35:28.955Z,27.79
2023-06-10T16:37:31.817Z,27.79
2023-06-10T16:39:34.683Z,28.57
2023-06-10T16:41:37.556Z,28.25
2023-06-10T16:43:41.749Z,27.90
2023-06-10T16:45:44.630Z,28.35
2023-06-10T16:47:47.507Z,28.14
2023-06-10T16:49:51.128Z,28.17
2023-06-10T16:51:54.149Z,28.75
2023-06-10T16:53:57.061Z,27.90
2023-06-10T16:56:03.197Z,27.41
2023-06-10T16:58:06.451Z,27.80
2023-06-10T17:00:12.163Z,27.99
2023-06-10T17:02:15.282Z,27.69
2023-06-10T17:04:18.239Z,27.41
2023-06-10T17:06:21.178Z,27.76
2023-06-10T17:08:23.961Z,28.42
2023-06-10T17:10:26.801Z,27.90
2023-06-10T17:12:29.691Z,27.74
2023-06-10T17:14:32.511Z,27.51
2023-06-10T17:16:36.828Z,27.60
2023-06-10T17:18:39.808Z,27.38
2023-06-10T17:20:42.720Z,27.26
2023-06-10T17:22:45.607Z,28.05
2023-06-10T17:24:48.466Z,28.61
2023-06-10T17:26:51.377Z,28.66
2023-06-10T17:28:54.238Z,28.20
2023-06-10T17:30:57.197Z,28.32
2023-06-10T17:33:01.422Z,28.38
2023-06-10T17:35:04.656Z,28.81
2023-06-10T17:37:07.653Z,29.18
2023-06-10T17:39:10.677Z,29.31
2023-06-10T17:41:13.534Z,28.66
2023-06-10T17:43:16.566Z,28.64
2023-06-10T17:45:19.435Z,28.87
2023-06-10T17:47:22.300Z,29.00
2023-06-10T17:49:32.813Z,28.51
2023-06-10T17:51:37.549Z,29.40
2023-06-10T17:53:40.452Z,28.37
2023-06-10T17:55:43.258Z,28.77
2023-06-10T17:57:46.307Z,28.58
2023-06-10T17:59:49.373Z,29.24
2023-06-10T18:01:52.288Z,29.76
2023-06-10T18:03:58.365Z,29.90
2023-06-10T18:06:03.093Z,30.34
2023-06-10T18:08:06.486Z,30.36
2023-06-10T18:10:10.256Z,29.35
2023-06-10T18:12:13.257Z,29.72
2023-06-10T18:14:17.007Z,29.58
2023-06-10T18:16:20.039Z,30.55
2023-06-10T18:18:23.108Z,30.86
2023-06-10T18:20:26.285Z,30.82
2023-06-10T18:22:30.482Z,30.82
2023-06-10T18:24:33.369Z,30.68
2023-06-10T18:26:36.293Z,30.81
2023-06-10T18:28:39.290Z,30.95
2023-06-10T18:30:42.118Z,31.25
2023-06-10T18:32:45.043Z,31.74
2023-06-10T18:34:50.451Z,32.10
2023-06-10T18:36:53.301Z,32.52
2023-06-10T18:38:57.450Z,32.65
2023-06-10T18:41:00.691Z,32.67
2023-06-10T18:43:03.650Z,32.70
2023-06-10T18:45:07.815Z,33.59
2023-06-10T18:47:11.774Z,33.42
2023-06-10T18:49:14.663Z,33.78
2023-06-10T18:51:17.592Z,33.92
2023-06-10T18:53:20.449Z,34.15
2023-06-10T18:55:24.732Z,33.90
2023-06-10T18:57:27.562Z,34.31
2023-06-10T18:59:30.369Z,34.57
2023-06-10T19:01:33.256Z,34.75
2023-06-10T19:03:36.840Z,35.01
2023-06-10T19:05:39.745Z,35.00
2023-06-10T19:07:42.583Z,35.09
2023-06-10T19:09:45.414Z,35.29
2023-06-10T19:11:49.582Z,35.47
2023-06-10T19:13:52.295Z,35.79
2023-06-10T19:15:55.180Z,36.16
2023-06-10T19:17:58.053Z,35.94
2023-06-10T19:20:01.409Z,36.55
2023-06-10T19:22:04.333Z,36.38
2023-06-10T19:24:07.980Z,36.50
2023-06-10T19:26:10.875Z,36.39
2023-06-10T19:28:15.189Z,36.51
2023-06-10T19:30:19.097Z,35.96
2023-06-10T19:32:22.177Z,36.55
2023-06-10T19:34:25.237Z,36.23
2023-06-10T19:36:28.142Z,36.32
2023-06-10T19:38:30.996Z,36.35
2023-06-10T19:40:33.835Z,36.70
2023-06-10T19:42:38.311Z,36.81
2023-06-10T19:44:42.626Z,36.96
2023-06-10T19:46:47.838Z,36.83
2023-06-10T19:48:51.171Z,36.92
2023-06-10T19:50:54.019Z,36.87
2023-06-10T19:52:56.850Z,37.07
2023-06-10T19:55:00.501Z,36.76
2023-06-10T19:57:04.449Z,37.01
2023-06-10T19:59:07.387Z,37.10
2023-06-10T20:01:11.575Z,37.46
2023-06-10T20:03:14.367Z,37.44
2023-06-10T20:05:17.309Z,37.26
2023-06-10T20:07:20.116Z,37.73
2023-06-10T20:09:23.001Z,37.69
2023-06-10T20:11:26.637Z,37.36
2023-06-10T20:13:29.602Z,37.95
2023-06-10T20:15:32.373Z,37.94
2023-06-10T20:17:36.979Z,38.23
2023-06-10T20:19:39.926Z,38.45
2023-06-10T20:21:42.706Z,38.32
2023-06-10T20:23:45.641Z,38.98
2023-06-10T20:25:48.445Z,39.08
2023-06-10T20:27:51.930Z,38.40
2023-06-10T20:29:57.193Z,38.77
2023-06-10T20:32:00.369Z,39.08
2023-06-10T20:34:04.620Z,38.91
2023-06-10T20:36:07.619Z,39.21
2023-06-10T20:38:10.637Z,39.22
2023-06-10T20:40:14.690Z,39.00
2023-06-10T20:42:17.607Z,39.32
2023-06-10T20:44:20.581Z,39.54
2023-06-10T20:46:23.468Z,39.55
2023-06-10T20:48:26.448Z,39.54
2023-06-10T20:50:32.638Z,39.68
2023-06-10T20:52:35.470Z,39.61
2023-06-10T20:54:38.364Z,39.75
2023-06-10T20:56:42.352Z,39.70
2023-06-10T20:58:45.371Z,39.85
2023-06-10T21:00:48.458Z,40.11
2023-06-10T21:02:51.425Z,39.94
2023-06-10T21:04:55.509Z,40.13
2023-06-10T21:06:59.766Z,40.45
2023-06-10T21:09:02.481Z,40.43
2023-06-10T21:11:05.773Z,40.78
2023-06-10T21:13:08.565Z,40.57
2023-06-10T21:15:11.910Z,40.58
2023-06-10T21:17:15.591Z,40.56
2023-06-10T21:19:18.430Z,40.75
2023-06-10T21:21:21.431Z,40.79
2023-06-10T21:23:25.746Z,40.83
2023-06-10T21:25:28.383Z,41.32
2023-06-10T21:27:31.456Z,41.36
2023-06-10T21:29:34.329Z,41.43
2023-06-10T21:31:37.713Z,41.55
2023-06-10T21:33:40.740Z,41.56
2023-06-10T21:35:43.826Z,41.45
2023-06-10T21:37:46.684Z,41.71
2023-06-10T21:39:50.892Z,41.55
2023-06-10T21:41:53.611Z,41.66
2023-06-10T21:43:56.440Z,41.56
2023-06-10T21:46:00.662Z,41.80
2023-06-10T21:48:03.631Z,42.00
2023-06-10T21:50:07.662Z,42.16
2023-06-10T21:52:10.511Z,42.35
2023-06-10T21:54:13.646Z,42.27
2023-06-10T21:56:19.342Z,42.29
2023-06-10T21:58:22.289Z,42.13
2023-06-10T22:00:25.435Z,42.15
2023-06-10T22:02:28.767Z,42.18
2023-06-10T22:04:31.608Z,42.38
2023-06-10T22:06:35.022Z,42.46
2023-06-10T22:08:38.005Z,42.59
2023-06-10T22:10:42.421Z,42.40
2023-06-10T22:12:46.669Z,42.52
2023-06-10T22:14:49.367Z,42.16
2023-06-10T22:16:52.765Z,42.49
2023-06-10T22:18:55.582Z,42.63
2023-06-10T22:20:58.402Z,42.98
2023-06-10T22:23:01.316Z,43.07
2023-06-10T22:25:04.301Z,42.97
2023-06-10T22:27:09.359Z,42.98
2023-06-10T22:29:18.927Z,42.55
2023-06-10T22:31:22.729Z,42.38
2023-06-10T22:33:25.867Z,42.41
2023-06-10T22:35:28.658Z,42.51
2023-06-10T22:37:31.493Z,42.75
2023-06-10T22:39:34.371Z,42.94
2023-06-10T22:41:37.181Z,43.48
2023-06-10T22:43:40.074Z,42.07
2023-06-10T22:45:44.355Z,42.16
2023-06-10T22:47:47.058Z,42.13
2023-06-10T22:49:49.961Z,41.86
2023-06-10T22:51:52.809Z,42.44
2023-06-10T22:53:55.665Z,41.87
2023-06-10T22:55:58.532Z,42.20
2023-06-10T22:58:01.692Z,42.37
2023-06-10T23:00:05.306Z,42.10
2023-06-10T23:02:09.753Z,42.26
2023-06-10T23:04:12.791Z,42.26
2023-06-10T23:06:16.874Z,42.24
2023-06-10T23:08:19.686Z,42.38
2023-06-10T23:10:22.534Z,42.46
2023-06-10T23:12:25.379Z,42.39
2023-06-10T23:14:28.208Z,42.56
2023-06-10T23:16:31.204Z,42.62
2023-06-10T23:18:36.122Z,42.78
2023-06-10T23:20:41.357Z,42.61
2023-06-10T23:22:44.174Z,43.05
2023-06-10T23:24:48.547Z,42.64
2023-06-10T23:26:51.387Z,43.04
2023-06-10T23:28:54.263Z,43.07
2023-06-10T23:30:57.747Z,43.28
2023-06-10T23:33:00.748Z,43.17
2023-06-10T23:35:05.749Z,43.32
2023-06-10T23:37:11.949Z,43.06
2023-06-10T23:39:15.883Z,43.40
2023-06-10T23:41:18.724Z,43.48
2023-06-10T23:43:21.653Z,43.19
2023-06-10T23:45:24.530Z,43.42
2023-06-10T23:47:27.551Z,43.38
2023-06-10T23:49:30.387Z,43.47
2023-06-10T23:51:35.097Z,43.80
2023-06-10T23:53:37.924Z,43.81
2023-06-10T23:55:40.928Z,44.00
2023-06-10T23:57:43.779Z,43.88
2023-06-10T23:59:46.669Z,43.49
